map of DCM home
DCM - Airport
Location
City:  Castres, Midi-Pyrénées, France
Name:Mazamet
ICAO:LFCK
IATA:DCM

Details
Type:Airport (Aerodrome, Airfield)
Use:Public/Civil
Latitude:43°33'18"N (43.554961)
Longitude:2°17'26"E (2.290592)
Elevation:787 ft (240 m)
Variation:0.94°E (WMM2015 magnetic declination)
0.12° annual change
Runways:1
Longest:5988 × 98 ft (1825 × 30 m)

Time
Time Zone:UTC+1 (DST+2)
Local Time:

Weather
METAR:LFCK 181500Z AUTO 11033G46KT CAVOK 11/06 Q1016 NOSIG

Related Locations
Nearby:
Farthest:CHT: 12375 mi / 19915 km
Waitangi [Tuuta], CIT, NZ

Find:

   beyond  
but within

Other Information
Maps:
NOTAMs:
Links:
Sources:

  
  • flag of France
  • flag of Midi-Pyrénées
  

Sectional Chart

Flight Planning
at skyvector.com

Satellite Image

Google Maps Satellite view

 

Copyright © 2004-2018 Karl L. Swartz. All rights reserved.
The Great Circle Mapper name and logo are trademarks of the Great Circle Mapper.
All other trademarks mentioned herein belong to their respective owners.
Please see credits for attibutions and further copyright information.

  Follow gcmap on Facebook Follow gcmap on Twitter Follow gcmap on Google+ GCmap on LinkedIn

hCard Microformat

Geo Microformat